Pagina principală
METAR-TAF:

METAR-TAF

Aeroporturi :

Macas, Ecuador

Latitudine: 02-17-57-S, longitudine: 078-07-15-W, elevație: 1052 m

Observații meteo curente

Raportul a fost făcut în urmă cu 9 ore și 56 de minute, la 23:00 UTC
Vânt 3 kt de la Nord-est
Temperatură 24°C
Umiditate 69%
Presiune 1015 hPa
Vizibilitate de 10 km sau mai mult
Nori puțini la o înălțime de 3000 picior

METAR: SEMC 132300Z 04003KT 9999 FEW030 24/18 Q1015 RMK A2999

Ora: 03:56 (08:56 UTC)


TAF: lipsă

Observații și prognoze meteo pentru peste 4.000 de aeroporturi (rapoarte METAR și TAF).

Stațiile disponibile sunt reprezentate pe hartă prin puncte galbene și roșii.

Țineți indicatorul mouse-ului pe punctul dorit pentru a vedea denumirea stației.

Apoi, faceți clic pentru a vedea observațiile și prognozele meteorologice.

Pentru a schimba harta: Pentru mărire, faceți clic pe butoanele verzi cu cruce neagră; pentru micșorare, pe butonul verde cu o liniuță; pentru hărți învecinate, pe săgețile verzi.


METAR-TAF: